Tongaat, South Africa
Current Conditions -  °F | °C
As of 6:00 AM on Sunday 26 Oct 2014 (Local Time) from FALE Reporting Station
Moderate Rain Moderate Rain  
Wind Chill: 63°   Ceiling: 1900
Heat Index: 63°   Visibility: 1.2mi
Dew Point: 61°   Wind: 3mph
Humidity: 94%   Direction: 200°SSW
Pressure: 30.3"   Gusts: NA
Location:  29.58°S, 31.12°E
Report Text: FALE 260400Z 20003KT 120V230 2000 RA SCT005 OVC019 17/16 Q1026 NOSIG
Loading
Personal Weather Stations






























Interactive Weather Map
Tropical Storm Tracking
New forecast layout! Learn more

10-Day Weather Forecast

Advertisements
Track Severe Weather on mobile